Stunt Ranch Reserve, Santa Monica Mtns, California Weather observations

Data are for 10 minute period ending at time listed.
 Day   Time   Solar   Ave.   Ave.  Ave.  Vector  Max.   Baro.   Total    
  of    of     Rad.   Air    Rel.  Wind   Wind   Wind  Press.  Precip.   
Year   Day            Temp.  Hum.  Speed  Dir.   Gust                    
2014   (PST)  Kw/m2    F      %     mph   deg.    mph    mb.     in.     
-------------------------------------------------------------------------
 209   13:10   0.86   96.4    25    3.3   303     7.9   971.6    0.00 
 209   13:20   0.92   94.8    28    2.9   302     7.8   971.6    0.00 
 209   13:30   0.92   94.3    29    3.5   298     9.1   971.6    0.00 
 209   13:40   0.94   94.8    27    3.8   292     9.2   971.2    0.00 
 209   13:50   0.68   94.7    27    3.3   298     8.5   971.2    0.00 
 209   14:00   0.70   94.4    27    3.6   283     7.8   971.2    0.00 
 209   14:10   0.81   94.5    25    3.7   290     9.5   971.2    0.00 
 209   14:20   0.69   93.9    26    3.6   284     9.1   971.2    0.00 
 209   14:30   0.78   93.1    27    4.1   286     9.1   971.2    0.00 
 209   14:40   0.75   93.0    30    4.6   280    10.2   970.9    0.00 
 209   14:50   0.73   93.0    31    4.0   285     9.7   970.9    0.00 
 209   15:00   0.70   91.0    33    4.3   287     9.3   970.9    0.00 
 209   15:10   0.67   91.7    32    3.3   276     7.5   970.9    0.00 
 209   15:20   0.65   92.5    31    4.1   281     7.6   970.5    0.00 
 209   15:30   0.62   93.2    27    2.4   303     4.8   970.5    0.00 
 209   15:40   0.60   95.3    23    3.9   284    10.2   970.5    0.00 
 209   15:50   0.55   96.1    22    3.4   291     9.6   970.2    0.00 
 209   16:00   0.33   96.3    22    3.9   280     8.9   970.2    0.00 
 209   16:10   0.43   95.6    22    3.2   295     8.9   970.2    0.00 
 209   16:20   0.46   96.1    21    3.7   293     9.8   970.2    0.00 
 209   16:30   0.43   95.5    20    4.2   288    10.0   970.2    0.00 
 209   16:40   0.31   95.4    19    4.5   302    10.9   970.2    0.00 
 209   16:50   0.14   92.6    20    3.4   308    11.7   969.9    0.00 
 209   17:00   0.18   90.8    21    4.7   316    13.2   969.9    0.00 
 209   17:10   0.17   90.2    21    2.3   309    10.2   969.9    0.00 
 209   17:20   0.22   90.8    20    2.8   298    12.1   969.9    0.00 
 209   17:30   0.20   91.4    19    2.4   307    10.1   969.9    0.00 
 209   17:40   0.13   90.4    17    2.8   288     9.5   969.9    0.00 
 209   17:50   0.15   88.2    17    2.9   281    10.7   969.9    0.00 
 209   18:00   0.11   86.6    15    4.4   287    11.5   969.9    0.00 
 209   18:10   0.05   85.0    16    4.6   275    10.0   969.9    0.00 
 209   18:20   0.05   83.6    18    2.8   286     8.5   969.9    0.00 
 209   18:30   0.05   82.6    18    2.0   286     7.5   969.9    0.00 
 209   18:40   0.03   82.1    18    1.5   285     5.4   969.5    0.00 
 209   18:50   0.01   81.2    18    2.0   289     6.9   969.9    0.00 
 209   19:00   0.01   80.0    18    0.5   293     3.2   969.9    0.00 
 209   19:10   0.00   78.7    18    0.4   290     2.3   969.9    0.00 
 209   19:20   0.00   77.5    19    1.6   254     5.3   969.9    0.00 
 209   19:30   0.00   76.5    20    3.4   271     7.3   970.2    0.00 
 209   19:40   0.00   76.2    23    4.0   274     6.9   970.2    0.00 
 209   19:50   0.00   75.8    25    2.0   268     6.4   970.2    0.00 
 209   20:00   0.00   75.0    26    2.4   260     4.6   970.5    0.00 
 209   20:10   0.00   74.2    31    2.6   276     5.2   970.5    0.00 
 209   20:20   0.00   73.6    33    3.0   267     6.1   970.5    0.00 
 209   20:30   0.00   73.1    36    0.8   249     3.0   970.9    0.00 
 209   20:40   0.00   72.6    41    2.7   250     6.0   970.9    0.00 
 209   20:50   0.00   72.1    44    2.9   238     5.8   970.9    0.00 
 209   21:00   0.00   71.7    48    4.2   265     6.2   971.2    0.00 
 209   21:10   0.00   71.3    51    2.2   272     5.4   971.2    0.00 
 209   21:20   0.00   70.7    50    0.7   189     2.2   971.2    0.00 
 209   21:30   0.00   70.3    50    1.6   135     2.4   971.2    0.00 
 209   21:40   0.00   70.2    48    0.9   220     2.3   970.9    0.00 
 209   21:50   0.00   70.2    50    0.3   261     1.0   970.9    0.00 
 209   22:00   0.00   70.2    51    1.2   272     3.0   970.9    0.00 
 209   22:10   0.00   69.4    52    1.6   272     5.4   970.9    0.00 
 209   22:20   0.00   68.7    56    1.6   244     3.5   970.9    0.00 
 209   22:30   0.00   68.4    60    1.2   278     2.4   970.9    0.00 
 209   22:40   0.00   68.1    60    0.5   239     1.8   971.2    0.00 
 209   22:50   0.00   68.1    57    2.0   133     3.3   971.2    0.00 
 209   23:00   0.00   70.3    36    3.7   218     7.9   970.9    0.00 
 209   23:10   0.00   73.3    26    3.8   226     7.5   970.9    0.00 
 209   23:20   0.00   74.1    23    3.2   217     5.9   970.9    0.00 
 209   23:30   0.00   73.9    23    3.6   217     6.6   970.9    0.00 
 209   23:40   0.00   74.1    24    3.4   222     6.0   970.9    0.00 
 209   23:50   0.00   73.9    24    3.0   218     5.3   970.9    0.00 
 210    0:00   0.00   73.5    25    2.7   224     3.9   970.5    0.00 
 210    0:10   0.00   72.9    28    1.1   236     4.0   970.5    0.00 
 210    0:20   0.00   72.4    30    0.4   338     1.5   970.9    0.00 
 210    0:30   0.00   71.6    32    0.4   156     2.0   970.5    0.00 
 210    0:40   0.00   71.3    36    2.3   166     3.7   970.5    0.00 
 210    0:50   0.00   72.5    37    2.5   185     4.0   970.5    0.00 
 210    1:00   0.00   74.3    36    1.7   214     3.3   970.5    0.00 
 210    1:10   0.00   74.2    37    0.2    25     1.0   970.5    0.00 
 210    1:20   0.00   73.2    37    0.3   323     1.2   970.2    0.00 
 210    1:30   0.00   71.1    38    0.8   284     1.9   970.2    0.00 
 210    1:40   0.00   69.5    43    1.3   283     2.9   970.5    0.00 
 210    1:50   0.00   68.0    51    1.2   289     2.8   970.5    0.00 
 210    2:00   0.00   66.1    54    3.8   118     4.7   970.5    0.00 
 210    2:10   0.00   66.6    51    3.5   134     5.0   970.5    0.00 
 210    2:20   0.00   68.9    44    1.9   159     3.9   970.2    0.00 
 210    2:30   0.00   69.8    42    1.7   112     3.2   970.2    0.00 
 210    2:40   0.00   69.0    44    1.3   270     2.6   970.2    0.00 
 210    2:50   0.00   68.8    44    0.5   252     2.1   970.5    0.00 
 210    3:00   0.00   69.4    43    1.6   176     3.1   970.2    0.00 
 210    3:10   0.00   69.4    44    1.6   122     3.8   970.5    0.00 
 210    3:20   0.00   69.3    44    1.7   200     3.1   970.5    0.00 
 210    3:30   0.00   68.9    44    1.7   104     3.5   970.5    0.00 
 210    3:40   0.00   69.0    44    1.6   139     3.1   970.5    0.00 
 210    3:50   0.00   69.0    44    0.5   145     1.4   970.5    0.00 
 210    4:00   0.00   69.3    44    0.6    86     1.8   970.5    0.00 
 210    4:10   0.00   69.5    44    1.9   344     4.9   970.9    0.00 
 210    4:20   0.00   69.4    46    1.1   348     3.7   970.9    0.00 
 210    4:30   0.00   67.3    49    1.6   100     3.4   970.9    0.00 
 210    4:40   0.00   64.6    54    2.2   120     3.3   970.9    0.00 
 210    4:50   0.00   65.6    50    1.9   141     3.4   970.5    0.00 
 210    5:00   0.00   66.3    50    0.3   228     1.5   970.5    0.00 
 210    5:10   0.01   66.7    50    1.9   290     2.8   970.9    0.00 
 210    5:20   0.01   66.1    52    0.9   132     2.3   970.9    0.00 
 210    5:30   0.02   66.1    52    0.7   101     2.0   970.9    0.00 
 210    5:40   0.03   66.4    51    1.6   123     2.9   970.9    0.00 
 210    5:50   0.03   66.6    50    2.0   118     2.8   970.9    0.00 
 210    6:00   0.06   67.3    50    0.9   110     2.3   971.2    0.00 
 210    6:10   0.11   69.0    47    2.0   119     2.9   971.2    0.00 
 210    6:20   0.15   71.5    43    1.3   276     2.9   971.2    0.00 
 210    6:30   0.17   73.4    42    1.0   346     2.0   971.2    0.00 
 210    6:40   0.21   73.2    42    1.2    82     2.3   971.2    0.00 
 210    6:50   0.24   74.6    40    1.2    97     2.9   971.2    0.00 
 210    7:00   0.27   76.5    38    0.9   337     2.3   971.2    0.00 
 210    7:10   0.30   78.2    36    0.4   323     1.9   971.2    0.00 
 210    7:20   0.33   79.7    35    1.1   304     1.9   971.2    0.00 
 210    7:30   0.37   80.4    34    2.1   290     3.1   971.2    0.00 
 210    7:40   0.39   82.0    34    1.9   296     3.5   970.9    0.00 
 210    7:50   0.44   82.1    33    2.0   299     3.6   970.9    0.00 
 210    8:00   0.46   83.3    31    2.5   289     4.5   970.9    0.00 
 210    8:10   0.48   84.4    29    2.3   289     5.0   970.9    0.00 
 210    8:20   0.49   85.1    28    2.5   291     4.5   970.9    0.00 
 210    8:30   0.52   85.9    28    3.3   281     5.5   970.9    0.00 
 210    8:40   0.55   85.9    27    3.1   276     5.6   970.9    0.00 
 210    8:50   0.59   87.0    27    2.3   287     6.1   971.2    0.00 
 210    9:00   0.61   89.2    27    3.8   282     6.6   971.2    0.00 
 210    9:10   0.64   89.3    26    3.5   288     7.2   971.2    0.00 
 210    9:20   0.69   90.1    25    3.3   303     7.4   971.6    0.00 
 210    9:30   0.72   90.5    25    3.3   293     6.7   971.6    0.00 
 210    9:40   0.75   90.4    26    3.3   287     6.6   971.6    0.00 
 210    9:50   0.73   91.2    25    3.6   310     8.0   971.2    0.00 
 210   10:00   0.73   91.1    25    2.9   302     6.6   971.2    0.00 
 210   10:10   0.76   91.6    24    2.4   309     5.6   971.2    0.00 
 210   10:20   0.78   92.2    24    3.1   312     7.1   971.2    0.00 
 210   10:30   0.69   93.3    23    2.1   312     5.6   971.2    0.00 
 210   10:40   0.86   94.1    23    3.9   284     8.4   971.2    0.00 
 210   10:50   0.85   95.9    22    3.1   289     6.1   970.9    0.00 
 210   11:00   0.84   95.6    21    2.7   294     6.7   970.9    0.00 
 210   11:10   0.86   96.2    20    3.1   298     7.3   970.5    0.00 
 210   11:20   0.84   96.7    20    4.2   280     9.6   970.5    0.00 
 210   11:30   0.91   98.7    21    3.3   293     8.8   970.5    0.00 
 210   11:40   0.91   99.0    22    3.3   302     8.3   970.5    0.00 
 210   11:50   0.91   96.3    25    3.5   307     8.3   970.5    0.00 
 210   12:00   0.94   95.1    25    4.0   293     8.6   970.5    0.00 
 210   12:10   0.96   95.7    24    4.6   280    10.4   970.2    0.00 
 210   12:20   0.94   96.0    25    4.4   287     9.9   970.2    0.00 
 210   12:30   0.93   96.9    25    3.7   279     8.0   970.2    0.00 
 210   12:40   0.92   97.0    26    2.8   291     7.3   970.2    0.00 
 210   12:50   0.92   97.8    25    3.5   284     8.8   969.9    0.00 
 210   13:00   0.89   98.7    24    3.8   284     8.0   969.9    0.00 

Return to Stunt Ranch Reserve graphs page.


Western Regional Climate Center,wrcc@dri.edu